createdAt,value
2023-02-07T00:01:34.174Z,97.30
2023-02-07T00:04:02.372Z,97.30
2023-02-07T00:06:34.044Z,97.90
2023-02-07T00:09:04.563Z,98.00
2023-02-07T00:11:32.302Z,99.20
2023-02-07T00:14:00.256Z,99.60
2023-02-07T00:16:28.468Z,99.30
2023-02-07T00:18:58.340Z,99.20
2023-02-07T00:21:28.541Z,99.30
2023-02-07T00:23:56.351Z,92.80
2023-02-07T00:26:26.722Z,93.30
2023-02-07T00:28:55.638Z,93.60
2023-02-07T00:31:35.112Z,93.50
2023-02-07T00:34:06.070Z,93.60
2023-02-07T00:36:36.256Z,93.30
2023-02-07T00:39:08.482Z,93.40
2023-02-07T00:41:35.716Z,93.10
2023-02-07T00:44:04.042Z,93.40
2023-02-07T00:46:31.932Z,93.30
2023-02-07T00:48:59.766Z,93.40
2023-02-07T00:51:27.808Z,93.60
2023-02-07T00:53:56.353Z,93.50
2023-02-07T00:56:26.550Z,93.20
2023-02-07T00:58:54.330Z,93.40
2023-02-07T01:01:22.587Z,93.30
2023-02-07T01:03:51.000Z,93.30
2023-02-07T01:06:18.490Z,93.40
2023-02-07T01:08:46.161Z,93.20
2023-02-07T01:11:17.050Z,93.20
2023-02-07T01:13:45.370Z,93.50
2023-02-07T01:16:28.583Z,93.20
2023-02-07T01:18:56.791Z,93.30
2023-02-07T01:21:26.754Z,93.40
2023-02-07T01:23:54.869Z,93.40
2023-02-07T01:26:25.012Z,93.60
2023-02-07T01:28:55.077Z,93.60
2023-02-07T01:31:23.857Z,93.80
2023-02-07T01:34:00.292Z,93.70
2023-02-07T01:36:30.058Z,93.60
2023-02-07T01:38:57.880Z,93.40
2023-02-07T01:41:27.114Z,93.20
2023-02-07T01:44:07.193Z,93.70
2023-02-07T01:46:37.098Z,93.60
2023-02-07T01:49:13.258Z,93.50
2023-02-07T01:51:48.900Z,93.60
2023-02-07T01:54:18.718Z,93.70
2023-02-07T01:56:57.214Z,93.80
2023-02-07T01:59:26.912Z,93.70
2023-02-07T02:02:01.384Z,93.60
2023-02-07T02:06:57.983Z,93.50
2023-02-07T02:09:27.495Z,93.90
2023-02-07T02:12:34.277Z,93.90
2023-02-07T02:15:30.886Z,93.60
2023-02-07T02:18:42.811Z,93.60
2023-02-07T02:21:18.859Z,93.70
2023-02-07T02:24:14.841Z,93.90
2023-02-07T02:26:54.260Z,93.60
2023-02-07T02:30:03.270Z,93.70
2023-02-07T02:32:51.484Z,93.90
2023-02-07T02:35:52.154Z,94.00
2023-02-07T02:38:32.453Z,93.90
2023-02-07T02:41:11.830Z,93.60
2023-02-07T02:43:56.399Z,93.40
2023-02-07T02:46:36.625Z,93.80
2023-02-07T02:49:08.887Z,93.70
2023-02-07T02:51:36.296Z,93.90
2023-02-07T02:54:03.620Z,93.80
2023-02-07T02:56:58.649Z,93.90
2023-02-07T02:59:44.666Z,94.10
2023-02-07T03:03:15.396Z,93.80
2023-02-07T03:06:16.373Z,94.10
2023-02-07T03:08:47.936Z,94.20
2023-02-07T03:11:22.264Z,94.00
2023-02-07T03:17:01.860Z,94.40
2023-02-07T03:19:48.681Z,94.70
2023-02-07T03:22:22.165Z,94.70
2023-02-07T03:24:56.041Z,95.00
2023-02-07T03:27:25.922Z,95.20
2023-02-07T03:29:56.849Z,95.10
2023-02-07T03:32:38.526Z,95.00
2023-02-07T03:35:25.437Z,95.00
2023-02-07T03:38:01.557Z,94.80
2023-02-07T03:40:44.442Z,94.90
2023-02-07T03:43:35.166Z,95.60
2023-02-07T03:46:02.447Z,96.90
2023-02-07T03:48:30.113Z,99.90
2023-02-07T03:50:57.548Z,99.90
2023-02-07T03:53:25.115Z,99.90
2023-02-07T03:55:52.299Z,99.90
2023-02-07T03:58:20.181Z,99.90
2023-02-07T04:00:47.430Z,99.90
2023-02-07T04:03:14.813Z,99.90
2023-02-07T04:05:43.883Z,99.90
2023-02-07T04:08:11.161Z,99.90
2023-02-07T04:10:38.605Z,99.90
2023-02-07T04:15:33.392Z,99.90
2023-02-07T04:18:00.613Z,98.10
2023-02-07T04:22:55.362Z,96.90
2023-02-07T04:25:22.772Z,96.90
2023-02-07T04:27:50.013Z,96.90
2023-02-07T04:30:17.431Z,97.10
2023-02-07T04:32:44.552Z,97.10
2023-02-07T04:35:11.955Z,99.90
2023-02-07T04:37:39.466Z,98.00
2023-02-07T04:40:07.932Z,99.90
2023-02-07T04:42:35.082Z,99.90
2023-02-07T04:45:02.360Z,99.90
2023-02-07T04:47:29.528Z,99.90
2023-02-07T04:49:56.949Z,99.90
2023-02-07T04:52:24.187Z,99.90
2023-02-07T04:54:51.426Z,99.90
2023-02-07T04:59:46.430Z,95.30
2023-02-07T05:02:13.855Z,95.70
2023-02-07T05:04:41.491Z,95.20
2023-02-07T05:07:09.075Z,94.80
2023-02-07T05:09:36.528Z,95.30
2023-02-07T05:12:04.049Z,96.70
2023-02-07T05:14:31.316Z,97.20
2023-02-07T05:16:58.861Z,96.60
2023-02-07T05:19:26.416Z,96.80
2023-02-07T05:21:53.626Z,96.70
2023-02-07T05:24:20.959Z,96.60
2023-02-07T05:26:48.184Z,97.10
2023-02-07T05:29:15.437Z,98.10
2023-02-07T05:31:42.896Z,95.20
2023-02-07T05:34:10.285Z,94.30
2023-02-07T05:36:37.489Z,94.40
2023-02-07T05:39:05.019Z,94.20
2023-02-07T05:41:32.300Z,94.40
2023-02-07T05:43:59.472Z,94.20
2023-02-07T05:46:28.324Z,94.30
2023-02-07T05:48:55.573Z,94.40
2023-02-07T05:51:22.809Z,94.50
2023-02-07T05:53:51.392Z,94.40
2023-02-07T05:56:22.733Z,93.70
2023-02-07T05:58:50.187Z,94.20
2023-02-07T06:01:17.440Z,94.70
2023-02-07T06:03:44.727Z,94.90
2023-02-07T06:06:12.087Z,94.60
2023-02-07T06:08:39.344Z,95.00
2023-02-07T06:11:06.881Z,94.80
2023-02-07T06:13:34.222Z,94.80
2023-02-07T06:16:01.418Z,94.90
2023-02-07T06:18:28.789Z,94.70
2023-02-07T06:20:56.113Z,94.10
2023-02-07T06:23:23.342Z,94.70
2023-02-07T06:25:50.628Z,94.80
2023-02-07T06:28:18.043Z,94.80
2023-02-07T06:30:45.386Z,94.80
2023-02-07T06:33:12.963Z,94.60
2023-02-07T06:35:42.952Z,94.40
2023-02-07T06:38:18.072Z,94.30
2023-02-07T06:40:45.807Z,94.20
2023-02-07T06:43:13.361Z,93.80
2023-02-07T06:45:41.331Z,93.30
2023-02-07T06:48:10.967Z,93.90
2023-02-07T06:53:06.054Z,93.80
2023-02-07T06:55:39.567Z,94.10
2023-02-07T06:58:07.969Z,94.30
2023-02-07T07:00:35.727Z,94.30
2023-02-07T07:03:04.491Z,94.50
2023-02-07T07:05:32.985Z,94.30
2023-02-07T07:08:00.292Z,94.30
2023-02-07T07:10:27.985Z,94.30
2023-02-07T07:12:55.198Z,94.30
2023-02-07T07:16:22.293Z,94.20
2023-02-07T07:19:04.512Z,94.60
2023-02-07T07:21:32.143Z,95.00
2023-02-07T07:23:59.790Z,95.00
2023-02-07T07:26:36.675Z,94.90
2023-02-07T07:29:14.142Z,95.00
2023-02-07T07:31:41.335Z,94.90
2023-02-07T07:34:08.564Z,94.30
2023-02-07T07:36:35.793Z,95.10
2023-02-07T07:39:03.668Z,95.60
2023-02-07T07:41:31.039Z,95.30
2023-02-07T07:43:58.331Z,95.10
2023-02-07T07:46:25.852Z,95.20
2023-02-07T07:48:53.144Z,95.00
2023-02-07T07:51:20.384Z,94.70
2023-02-07T07:53:54.799Z,94.40
2023-02-07T07:56:22.057Z,94.50
2023-02-07T07:58:49.274Z,94.80
2023-02-07T08:01:16.572Z,94.70
2023-02-07T08:03:43.844Z,94.90
2023-02-07T08:06:11.325Z,95.40
2023-02-07T08:08:38.714Z,95.30
2023-02-07T08:11:09.404Z,95.40
2023-02-07T08:13:38.397Z,95.50
2023-02-07T08:16:07.664Z,96.00
2023-02-07T08:18:35.666Z,95.90
2023-02-07T08:21:03.648Z,96.10
2023-02-07T08:23:31.230Z,95.60
2023-02-07T08:25:58.416Z,95.60
2023-02-07T08:28:27.346Z,95.60
2023-02-07T08:30:55.044Z,95.80
2023-02-07T08:33:22.944Z,95.90
2023-02-07T08:35:50.964Z,96.10
2023-02-07T08:38:18.242Z,95.80
2023-02-07T08:40:45.420Z,95.70
2023-02-07T08:43:14.296Z,95.80
2023-02-07T08:45:47.174Z,95.90
2023-02-07T08:48:15.269Z,95.80
2023-02-07T08:50:42.675Z,95.80
2023-02-07T08:53:10.273Z,95.80
2023-02-07T08:55:40.998Z,96.00
2023-02-07T08:58:08.473Z,95.90
2023-02-07T09:00:36.540Z,95.70
2023-02-07T09:03:05.143Z,95.60
2023-02-07T09:05:32.621Z,95.80
2023-02-07T09:08:01.644Z,95.50
2023-02-07T09:10:29.000Z,95.60
2023-02-07T09:12:56.332Z,95.90
2023-02-07T09:15:23.618Z,95.80
2023-02-07T09:17:50.826Z,95.50
2023-02-07T09:20:18.427Z,95.40
2023-02-07T09:22:45.690Z,95.60
2023-02-07T09:25:13.149Z,95.80
2023-02-07T09:27:40.473Z,96.00
2023-02-07T09:30:09.922Z,95.80
2023-02-07T09:32:37.137Z,95.60
2023-02-07T09:35:04.510Z,95.30
2023-02-07T09:37:37.395Z,95.60
2023-02-07T09:40:19.001Z,95.70
2023-02-07T09:43:26.661Z,95.50
2023-02-07T09:46:03.033Z,95.10
2023-02-07T09:48:51.183Z,95.70
2023-02-07T09:51:24.252Z,95.80
2023-02-07T09:54:00.257Z,95.40
2023-02-07T09:56:30.102Z,95.20
2023-02-07T09:59:27.384Z,95.30
2023-02-07T10:02:01.702Z,95.10
2023-02-07T10:04:39.615Z,95.70
2023-02-07T10:07:11.496Z,95.60
2023-02-07T10:09:42.728Z,95.10
2023-02-07T10:12:56.149Z,94.90
2023-02-07T10:15:57.093Z,94.70
2023-02-07T10:18:52.435Z,94.50
2023-02-07T10:21:41.276Z,94.20
2023-02-07T10:24:33.401Z,94.40
2023-02-07T10:27:11.560Z,94.70
2023-02-07T10:30:24.465Z,94.50
2023-02-07T10:32:52.405Z,94.10
2023-02-07T10:35:35.037Z,94.10
2023-02-07T10:38:04.585Z,94.20
2023-02-07T10:40:52.987Z,95.10
2023-02-07T10:43:33.246Z,95.60
2023-02-07T10:46:08.929Z,96.00
2023-02-07T10:48:37.970Z,95.90
2023-02-07T10:51:19.408Z,95.30
2023-02-07T10:54:01.052Z,94.60
2023-02-07T10:56:31.676Z,94.80
2023-02-07T10:59:00.075Z,94.20
2023-02-07T11:01:31.830Z,94.60
2023-02-07T11:03:59.693Z,94.20
2023-02-07T11:06:34.915Z,94.40
2023-02-07T11:09:24.719Z,93.60
2023-02-07T11:11:54.384Z,93.60
2023-02-07T11:14:25.861Z,94.20
2023-02-07T11:17:00.165Z,93.60
2023-02-07T11:19:31.969Z,92.40
2023-02-07T11:22:23.636Z,91.70
2023-02-07T11:24:59.523Z,92.20
2023-02-07T11:27:27.631Z,92.50
2023-02-07T11:30:07.094Z,92.90
2023-02-07T11:32:35.000Z,93.20
2023-02-07T11:35:08.613Z,94.00
2023-02-07T11:37:40.510Z,94.30
2023-02-07T11:40:27.030Z,94.20
2023-02-07T11:47:05.269Z,94.00
2023-02-07T11:49:54.391Z,94.10
2023-02-07T11:52:22.478Z,94.30
2023-02-07T11:55:06.206Z,94.00
2023-02-07T11:57:34.729Z,94.40
2023-02-07T12:00:04.793Z,93.50
2023-02-07T12:02:33.849Z,92.50
2023-02-07T12:05:25.795Z,90.10
2023-02-07T12:08:06.497Z,88.00
2023-02-07T12:10:39.849Z,84.80
2023-02-07T12:13:31.352Z,81.00
2023-02-07T12:16:15.411Z,81.10
2023-02-07T12:18:53.647Z,73.60
2023-02-07T12:21:32.402Z,70.80
2023-02-07T12:24:16.983Z,62.00
2023-02-07T12:26:54.438Z,62.10
2023-02-07T12:29:50.093Z,61.30
2023-02-07T12:32:42.529Z,56.80
2023-02-07T12:39:44.435Z,56.20
2023-02-07T12:42:39.507Z,55.60
2023-02-07T12:45:14.790Z,54.80
2023-02-07T12:48:19.045Z,53.10
2023-02-07T12:51:07.736Z,54.30
2023-02-07T12:54:06.011Z,53.40
2023-02-07T12:57:18.882Z,52.70
2023-02-07T13:00:08.781Z,54.30
2023-02-07T13:02:54.054Z,54.70
2023-02-07T13:06:00.561Z,53.30
2023-02-07T13:12:49.987Z,56.20
2023-02-07T13:15:55.120Z,54.30
2023-02-07T13:18:42.106Z,57.90
2023-02-07T13:21:29.095Z,61.60
2023-02-07T13:24:06.324Z,64.50
2023-02-07T13:26:35.451Z,69.60
2023-02-07T13:29:17.326Z,70.10
2023-02-07T13:31:58.079Z,69.50
2023-02-07T13:34:32.095Z,73.80
2023-02-07T13:37:11.454Z,75.00
2023-02-07T13:44:26.789Z,75.90
2023-02-07T13:51:38.632Z,80.30
2023-02-07T13:55:05.333Z,81.30
2023-02-07T14:01:32.168Z,82.30
2023-02-07T14:04:10.538Z,83.60
2023-02-07T14:10:51.235Z,82.00
2023-02-07T14:13:27.895Z,83.30
2023-02-07T14:16:09.375Z,83.20
2023-02-07T14:18:50.151Z,80.80
2023-02-07T14:21:23.113Z,83.00
2023-02-07T14:24:14.345Z,82.90
2023-02-07T14:35:17.418Z,83.80
2023-02-07T14:38:09.138Z,83.70
2023-02-07T14:41:01.816Z,83.80
2023-02-07T14:43:56.772Z,83.50
2023-02-07T14:46:42.631Z,84.30
2023-02-07T14:49:20.926Z,85.80
2023-02-07T14:51:54.796Z,85.10
2023-02-07T14:55:01.182Z,85.00
2023-02-07T15:02:30.441Z,84.40
2023-02-07T15:04:59.463Z,84.60
2023-02-07T15:07:26.676Z,86.30
2023-02-07T15:14:03.122Z,87.40
2023-02-07T15:16:35.823Z,86.90
2023-02-07T15:19:23.080Z,86.70
2023-02-07T15:21:51.353Z,83.80
2023-02-07T15:24:51.204Z,84.10
2023-02-07T15:27:26.818Z,85.80
2023-02-07T15:30:06.646Z,87.10
2023-02-07T15:32:43.643Z,86.00
2023-02-07T15:35:28.818Z,85.50
2023-02-07T15:38:23.130Z,84.30
2023-02-07T15:40:52.911Z,85.00
2023-02-07T15:43:35.414Z,84.10
2023-02-07T15:46:06.359Z,83.90
2023-02-07T15:48:49.832Z,84.30
2023-02-07T15:51:25.056Z,84.70
2023-02-07T15:53:57.810Z,85.80
2023-02-07T15:56:28.992Z,85.70
2023-02-07T15:59:10.458Z,85.30
2023-02-07T16:01:38.020Z,86.30
2023-02-07T16:04:08.861Z,87.10
2023-02-07T16:10:42.485Z,87.30
2023-02-07T16:13:23.121Z,87.90
2023-02-07T16:16:26.700Z,88.20
2023-02-07T16:19:19.890Z,88.70
2023-02-07T16:22:02.014Z,88.20
2023-02-07T16:27:00.860Z,88.00
2023-02-07T16:29:29.067Z,89.60
2023-02-07T16:31:56.726Z,89.40
2023-02-07T16:34:26.640Z,89.40
2023-02-07T16:36:56.164Z,89.50
2023-02-07T16:39:24.032Z,89.40
2023-02-07T16:41:59.308Z,88.20
2023-02-07T16:44:28.268Z,88.50
2023-02-07T16:46:55.666Z,88.80
2023-02-07T16:49:25.392Z,88.90
2023-02-07T16:51:53.768Z,88.30
2023-02-07T16:54:22.031Z,87.40
2023-02-07T16:56:54.413Z,89.10
2023-02-07T16:59:23.254Z,91.00
2023-02-07T17:04:21.904Z,91.70
2023-02-07T17:06:50.423Z,91.10
2023-02-07T17:09:24.932Z,90.30
2023-02-07T17:11:56.687Z,89.80
2023-02-07T17:14:23.941Z,90.00
2023-02-07T17:16:51.297Z,90.30
2023-02-07T17:19:23.130Z,90.20
2023-02-07T17:21:52.125Z,90.00
2023-02-07T17:24:20.157Z,90.10
2023-02-07T17:26:54.286Z,90.10
2023-02-07T17:29:22.525Z,95.70
2023-02-07T17:31:50.390Z,94.80
2023-02-07T17:34:18.047Z,91.00
2023-02-07T17:36:50.999Z,90.80
2023-02-07T17:39:19.652Z,90.40
2023-02-07T17:41:46.932Z,90.00
2023-02-07T17:44:14.454Z,90.10
2023-02-07T17:46:47.390Z,91.40
2023-02-07T17:49:16.995Z,92.90
2023-02-07T17:51:44.304Z,97.90
2023-02-07T17:58:18.738Z,97.20
2023-02-07T18:00:45.975Z,89.70
2023-02-07T18:03:21.866Z,90.00
2023-02-07T18:05:49.112Z,90.50
2023-02-07T18:12:16.696Z,92.10
2023-02-07T18:14:44.108Z,90.50
2023-02-07T18:17:11.897Z,90.60
2023-02-07T18:19:41.394Z,90.80
2023-02-07T18:22:11.327Z,90.70
2023-02-07T18:24:38.545Z,90.70
2023-02-07T18:27:06.116Z,90.60
2023-02-07T18:29:33.392Z,90.50
2023-02-07T18:32:00.759Z,90.10
2023-02-07T18:34:28.336Z,89.50
2023-02-07T18:36:55.800Z,89.80
2023-02-07T18:39:23.366Z,89.90
2023-02-07T18:41:50.594Z,90.40
2023-02-07T18:44:17.835Z,90.50
2023-02-07T18:46:45.210Z,90.10
2023-02-07T18:51:41.072Z,89.80
2023-02-07T18:54:08.568Z,90.60
2023-02-07T18:59:06.122Z,97.90
2023-02-07T19:01:39.721Z,99.90
2023-02-07T19:06:37.101Z,92.40
2023-02-07T19:09:04.347Z,92.10
2023-02-07T19:11:31.513Z,92.20
2023-02-07T19:13:58.771Z,92.00
2023-02-07T19:16:27.071Z,92.00
2023-02-07T19:18:59.278Z,92.20
2023-02-07T19:21:26.809Z,92.50
2023-02-07T19:23:56.071Z,92.30
2023-02-07T19:26:24.263Z,91.90
2023-02-07T19:28:53.077Z,94.10
2023-02-07T19:31:21.685Z,95.10
2023-02-07T19:33:50.645Z,97.20
2023-02-07T19:36:19.777Z,97.30
2023-02-07T19:41:15.133Z,99.90
2023-02-07T19:43:42.695Z,99.90
2023-02-07T20:13:48.173Z,91.00
2023-02-07T20:16:20.908Z,91.40
2023-02-07T20:18:49.364Z,91.40
2023-02-07T20:21:21.612Z,91.40
2023-02-07T20:23:55.226Z,91.10
2023-02-07T20:26:35.134Z,90.70
2023-02-07T20:29:08.953Z,90.70
2023-02-07T20:31:37.793Z,90.90
2023-02-07T20:34:08.543Z,90.80
2023-02-07T20:36:37.683Z,91.40
2023-02-07T20:39:04.929Z,91.20
2023-02-07T20:41:32.310Z,91.30
2023-02-07T20:44:08.827Z,94.90
2023-02-07T20:46:37.624Z,91.50
2023-02-07T20:49:13.944Z,91.50
2023-02-07T20:51:41.377Z,91.30
2023-02-07T20:54:10.917Z,91.60
2023-02-07T20:56:38.908Z,91.60
2023-02-07T20:59:07.657Z,91.60
2023-02-07T21:01:36.140Z,91.70
2023-02-07T21:04:05.785Z,91.60
2023-02-07T21:06:35.262Z,92.00
2023-02-07T21:09:06.425Z,92.10
2023-02-07T21:11:37.610Z,92.00
2023-02-07T21:14:08.738Z,92.00
2023-02-07T21:16:36.316Z,92.10
2023-02-07T21:19:03.832Z,94.20
2023-02-07T21:21:31.388Z,98.40
2023-02-07T21:23:59.651Z,93.50
2023-02-07T21:26:28.777Z,93.00
2023-02-07T21:29:02.443Z,92.50
2023-02-07T21:31:33.073Z,91.90
2023-02-07T21:34:03.558Z,91.90
2023-02-07T21:36:35.180Z,91.90
2023-02-07T21:39:02.509Z,91.90
2023-02-07T21:41:30.580Z,91.90
2023-02-07T21:43:59.382Z,91.40
2023-02-07T21:46:31.128Z,91.50
2023-02-07T21:49:02.650Z,91.50
2023-02-07T21:51:33.889Z,91.30
2023-02-07T21:54:03.744Z,91.50
2023-02-07T21:56:35.087Z,91.60
2023-02-07T21:59:06.897Z,91.80
2023-02-07T22:01:34.620Z,91.90
2023-02-07T22:04:03.935Z,96.90
2023-02-07T22:06:33.433Z,98.30
2023-02-07T22:09:02.456Z,99.70
2023-02-07T22:11:34.399Z,98.20
2023-02-07T22:14:01.966Z,98.20
2023-02-07T22:16:32.191Z,99.60
2023-02-07T22:19:02.177Z,99.90
2023-02-07T22:21:33.562Z,99.90
2023-02-07T22:24:02.433Z,99.90
2023-02-07T22:26:31.064Z,99.90
2023-02-07T22:28:58.675Z,99.90
2023-02-07T22:31:30.234Z,99.90
2023-02-07T22:34:03.949Z,99.90
2023-02-07T22:36:34.626Z,99.90
2023-02-07T22:39:04.234Z,96.80
2023-02-07T22:41:32.893Z,97.20
2023-02-07T22:44:00.522Z,98.20
2023-02-07T22:46:29.223Z,98.90
2023-02-07T22:48:57.062Z,99.90
2023-02-07T22:51:26.084Z,99.90
2023-02-07T22:53:58.787Z,99.90
2023-02-07T22:56:27.662Z,99.60
2023-02-07T22:58:56.197Z,99.90
2023-02-07T23:01:28.335Z,99.90
2023-02-07T23:03:56.992Z,96.60
2023-02-07T23:06:26.539Z,92.30
2023-02-07T23:08:54.690Z,92.40
2023-02-07T23:11:23.769Z,92.30
2023-02-07T23:13:53.193Z,92.10
2023-02-07T23:16:28.092Z,92.00
2023-02-07T23:19:01.636Z,92.30
2023-02-07T23:21:30.073Z,92.40
2023-02-07T23:23:58.013Z,92.20
2023-02-07T23:26:27.011Z,91.90
2023-02-07T23:28:54.858Z,91.80
2023-02-07T23:31:24.489Z,92.10
2023-02-07T23:33:53.366Z,92.30
2023-02-07T23:36:21.485Z,95.30
2023-02-07T23:38:50.284Z,95.50
2023-02-07T23:41:18.118Z,95.10
2023-02-07T23:43:45.931Z,96.20
2023-02-07T23:46:15.928Z,98.80
